sensor_id;sensor_type;location;lat;lon;timestamp;pressure;altitude;pressure_sealevel;temperature;humidity
77452;BME280;66537;52.370;4.832;2024-01-06T00:00:44;100596.97;;;5.60;100.00
77452;BME280;66537;52.370;4.832;2024-01-06T00:03:11;100596.84;;;5.71;100.00
77452;BME280;66537;52.370;4.832;2024-01-06T00:05:36;100596.94;;;5.63;100.00
77452;BME280;66537;52.370;4.832;2024-01-06T00:08:01;100600.16;;;5.77;100.00
77452;BME280;66537;52.370;4.832;2024-01-06T00:10:29;100595.56;;;6.03;100.00
77452;BME280;66537;52.370;4.832;2024-01-06T00:12:54;100598.00;;;6.12;100.00
77452;BME280;66537;52.370;4.832;2024-01-06T00:15:20;100595.44;;;6.12;100.00
77452;BME280;66537;52.370;4.832;2024-01-06T00:17:45;100599.69;;;6.15;100.00
77452;BME280;66537;52.370;4.832;2024-01-06T00:20:10;100602.47;;;5.98;100.00
77452;BME280;66537;52.370;4.832;2024-01-06T00:22:36;100605.13;;;5.92;100.00
77452;BME280;66537;52.370;4.832;2024-01-06T00:25:01;100617.03;;;5.99;100.00
77452;BME280;66537;52.370;4.832;2024-01-06T00:27:27;100612.91;;;5.88;100.00
77452;BME280;66537;52.370;4.832;2024-01-06T00:29:52;100613.91;;;5.75;100.00
77452;BME280;66537;52.370;4.832;2024-01-06T00:32:17;100609.81;;;5.59;100.00
77452;BME280;66537;52.370;4.832;2024-01-06T00:34:43;100610.78;;;5.52;100.00
77452;BME280;66537;52.370;4.832;2024-01-06T00:37:08;100611.25;;;5.79;100.00
77452;BME280;66537;52.370;4.832;2024-01-06T00:39:33;100616.50;;;5.72;100.00
77452;BME280;66537;52.370;4.832;2024-01-06T00:41:58;100614.91;;;5.63;100.00
77452;BME280;66537;52.370;4.832;2024-01-06T00:44:24;100619.94;;;5.69;100.00
77452;BME280;66537;52.370;4.832;2024-01-06T00:46:49;100621.53;;;5.79;100.00
77452;BME280;66537;52.370;4.832;2024-01-06T00:49:15;100621.78;;;5.60;100.00
77452;BME280;66537;52.370;4.832;2024-01-06T00:51:40;100618.41;;;5.56;100.00
77452;BME280;66537;52.370;4.832;2024-01-06T00:54:05;100621.94;;;5.46;100.00
77452;BME280;66537;52.370;4.832;2024-01-06T00:56:31;100619.28;;;5.55;100.00
77452;BME280;66537;52.370;4.832;2024-01-06T00:58:56;100624.75;;;5.23;100.00
77452;BME280;66537;52.370;4.832;2024-01-06T01:01:21;100631.66;;;5.15;100.00
77452;BME280;66537;52.370;4.832;2024-01-06T01:03:47;100635.81;;;5.30;100.00
77452;BME280;66537;52.370;4.832;2024-01-06T01:06:12;100642.53;;;5.41;100.00
77452;BME280;66537;52.370;4.832;2024-01-06T01:08:37;100647.81;;;5.26;100.00
77452;BME280;66537;52.370;4.832;2024-01-06T01:11:03;100652.81;;;5.38;100.00
77452;BME280;66537;52.370;4.832;2024-01-06T01:13:28;100659.59;;;5.42;100.00
77452;BME280;66537;52.370;4.832;2024-01-06T01:15:53;100658.69;;;5.46;100.00
77452;BME280;66537;52.370;4.832;2024-01-06T01:18:19;100661.38;;;5.37;100.00
77452;BME280;66537;52.370;4.832;2024-01-06T01:20:44;100669.97;;;5.30;100.00
77452;BME280;66537;52.370;4.832;2024-01-06T01:23:09;100673.59;;;5.10;100.00
77452;BME280;66537;52.370;4.832;2024-01-06T01:25:35;100686.31;;;5.22;100.00
77452;BME280;66537;52.370;4.832;2024-01-06T01:28:00;100682.06;;;5.22;100.00
77452;BME280;66537;52.370;4.832;2024-01-06T01:30:26;100689.03;;;5.07;100.00
77452;BME280;66537;52.370;4.832;2024-01-06T01:32:52;100688.06;;;5.17;100.00
77452;BME280;66537;52.370;4.832;2024-01-06T01:35:18;100696.66;;;5.14;100.00
77452;BME280;66537;52.370;4.832;2024-01-06T01:37:43;100696.66;;;5.14;100.00
77452;BME280;66537;52.370;4.832;2024-01-06T01:40:09;100707.00;;;5.04;100.00
77452;BME280;66537;52.370;4.832;2024-01-06T01:42:34;100713.69;;;5.21;100.00
77452;BME280;66537;52.370;4.832;2024-01-06T01:44:59;100709.53;;;5.08;100.00
77452;BME280;66537;52.370;4.832;2024-01-06T01:47:25;100724.03;;;5.08;100.00
77452;BME280;66537;52.370;4.832;2024-01-06T01:49:52;100731.63;;;5.21;100.00
77452;BME280;66537;52.370;4.832;2024-01-06T01:52:19;100733.34;;;5.19;100.00
77452;BME280;66537;52.370;4.832;2024-01-06T01:54:45;100729.25;;;4.96;100.00
77452;BME280;66537;52.370;4.832;2024-01-06T01:57:12;100738.63;;;5.03;100.00
77452;BME280;66537;52.370;4.832;2024-01-06T01:59:39;100740.28;;;5.08;100.00
77452;BME280;66537;52.370;4.832;2024-01-06T02:02:04;100736.91;;;5.02;100.00
77452;BME280;66537;52.370;4.832;2024-01-06T02:04:30;100733.41;;;5.15;100.00
77452;BME280;66537;52.370;4.832;2024-01-06T02:06:55;100740.25;;;5.14;100.00
77452;BME280;66537;52.370;4.832;2024-01-06T02:09:20;100740.25;;;5.13;100.00
77452;BME280;66537;52.370;4.832;2024-01-06T02:11:48;100738.50;;;5.18;100.00
77452;BME280;66537;52.370;4.832;2024-01-06T02:14:13;100744.50;;;5.14;100.00
77452;BME280;66537;52.370;4.832;2024-01-06T02:16:38;100750.34;;;5.34;100.00
77452;BME280;66537;52.370;4.832;2024-01-06T02:19:04;100752.13;;;5.21;100.00
77452;BME280;66537;52.370;4.832;2024-01-06T02:21:31;100754.63;;;5.30;100.00
77452;BME280;66537;52.370;4.832;2024-01-06T02:23:56;100764.97;;;5.21;100.00
77452;BME280;66537;52.370;4.832;2024-01-06T02:26:21;100761.44;;;5.34;100.00
77452;BME280;66537;52.370;4.832;2024-01-06T02:28:47;100764.69;;;5.55;100.00
77452;BME280;66537;52.370;4.832;2024-01-06T02:31:14;100767.31;;;5.47;100.00
77452;BME280;66537;52.370;4.832;2024-01-06T02:33:39;100766.53;;;5.39;100.00
77452;BME280;66537;52.370;4.832;2024-01-06T02:36:05;100771.66;;;5.39;100.00
77452;BME280;66537;52.370;4.832;2024-01-06T02:38:30;100776.06;;;5.26;100.00
77452;BME280;66537;52.370;4.832;2024-01-06T02:40:56;100775.31;;;5.11;100.00
77452;BME280;66537;52.370;4.832;2024-01-06T02:43:22;100784.81;;;4.94;100.00
77452;BME280;66537;52.370;4.832;2024-01-06T02:45:48;100791.59;;;5.07;100.00
77452;BME280;66537;52.370;4.832;2024-01-06T02:48:13;100788.94;;;5.17;100.00
77452;BME280;66537;52.370;4.832;2024-01-06T02:50:38;100788.16;;;5.06;100.00
77452;BME280;66537;52.370;4.832;2024-01-06T02:53:04;100800.09;;;5.12;100.00
77452;BME280;66537;52.370;4.832;2024-01-06T02:55:29;100809.50;;;5.10;100.00
77452;BME280;66537;52.370;4.832;2024-01-06T02:57:54;100811.28;;;4.99;100.00
77452;BME280;66537;52.370;4.832;2024-01-06T03:00:20;100814.72;;;4.99;100.00
77452;BME280;66537;52.370;4.832;2024-01-06T03:02:45;100809.53;;;5.04;100.00
77452;BME280;66537;52.370;4.832;2024-01-06T03:05:11;100813.75;;;5.14;100.00
77452;BME280;66537;52.370;4.832;2024-01-06T03:07:36;100812.78;;;5.28;100.00
77452;BME280;66537;52.370;4.832;2024-01-06T03:10:01;100813.75;;;5.12;100.00
77452;BME280;66537;52.370;4.832;2024-01-06T03:12:27;100824.72;;;5.31;100.00
77452;BME280;66537;52.370;4.832;2024-01-06T03:14:53;100820.53;;;5.22;100.00
77452;BME280;66537;52.370;4.832;2024-01-06T03:17:18;100830.81;;;5.18;100.00
77452;BME280;66537;52.370;4.832;2024-01-06T03:19:44;100831.72;;;5.08;100.00
77452;BME280;66537;52.370;4.832;2024-01-06T03:22:09;100835.91;;;5.21;100.00
77452;BME280;66537;52.370;4.832;2024-01-06T03:24:34;100847.84;;;5.29;100.00
77452;BME280;66537;52.370;4.832;2024-01-06T03:27:00;100841.88;;;5.26;100.00
77452;BME280;66537;52.370;4.832;2024-01-06T03:29:25;100846.19;;;5.22;100.00
77452;BME280;66537;52.370;4.832;2024-01-06T03:31:50;100846.19;;;5.19;100.00
77452;BME280;66537;52.370;4.832;2024-01-06T03:34:15;100850.44;;;5.23;100.00
77452;BME280;66537;52.370;4.832;2024-01-06T03:36:41;100853.97;;;5.09;100.00
77452;BME280;66537;52.370;4.832;2024-01-06T03:39:06;100855.66;;;5.10;100.00
77452;BME280;66537;52.370;4.832;2024-01-06T03:41:32;100854.66;;;5.30;100.00
77452;BME280;66537;52.370;4.832;2024-01-06T03:43:57;100855.78;;;4.84;100.00
77452;BME280;66537;52.370;4.832;2024-01-06T03:46:23;100853.19;;;4.95;100.00
77452;BME280;66537;52.370;4.832;2024-01-06T03:48:48;100857.50;;;4.85;100.00
77452;BME280;66537;52.370;4.832;2024-01-06T03:51:14;100854.97;;;4.79;100.00
77452;BME280;66537;52.370;4.832;2024-01-06T03:53:39;100859.16;;;4.92;100.00
77452;BME280;66537;52.370;4.832;2024-01-06T03:56:08;100859.19;;;4.91;100.00
77452;BME280;66537;52.370;4.832;2024-01-06T03:58:33;100863.50;;;4.78;100.00
77452;BME280;66537;52.370;4.832;2024-01-06T04:00:59;100858.38;;;4.83;100.00
77452;BME280;66537;52.370;4.832;2024-01-06T04:03:24;100866.06;;;4.78;100.00
77452;BME280;66537;52.370;4.832;2024-01-06T04:05:50;100880.66;;;4.70;100.00
77452;BME280;66537;52.370;4.832;2024-01-06T04:08:15;100882.38;;;4.65;100.00
77452;BME280;66537;52.370;4.832;2024-01-06T04:10:41;100900.38;;;4.48;100.00
77452;BME280;66537;52.370;4.832;2024-01-06T04:13:07;100892.69;;;4.54;100.00
77452;BME280;66537;52.370;4.832;2024-01-06T04:15:32;100896.06;;;4.63;100.00
77452;BME280;66537;52.370;4.832;2024-01-06T04:18:01;100894.31;;;4.68;100.00
77452;BME280;66537;52.370;4.832;2024-01-06T04:20:27;100892.59;;;4.73;100.00
77452;BME280;66537;52.370;4.832;2024-01-06T04:22:53;100890.88;;;4.73;100.00
77452;BME280;66537;52.370;4.832;2024-01-06T04:25:18;100898.56;;;4.69;100.00
77452;BME280;66537;52.370;4.832;2024-01-06T04:27:43;100902.88;;;4.59;100.00
77452;BME280;66537;52.370;4.832;2024-01-06T04:30:11;100903.72;;;4.66;100.00
77452;BME280;66537;52.370;4.832;2024-01-06T04:32:37;100907.13;;;4.72;100.00
77452;BME280;66537;52.370;4.832;2024-01-06T04:35:02;100908.00;;;4.68;100.00
77452;BME280;66537;52.370;4.832;2024-01-06T04:37:28;100907.06;;;4.78;100.00
77452;BME280;66537;52.370;4.832;2024-01-06T04:39:53;100925.84;;;4.95;100.00
77452;BME280;66537;52.370;4.832;2024-01-06T04:42:18;100917.44;;;4.52;100.00
77452;BME280;66537;52.370;4.832;2024-01-06T04:44:44;100921.66;;;4.67;100.00
77452;BME280;66537;52.370;4.832;2024-01-06T04:47:10;100919.94;;;4.71;100.00
77452;BME280;66537;52.370;4.832;2024-01-06T04:49:35;100919.06;;;4.76;100.00
77452;BME280;66537;52.370;4.832;2024-01-06T04:52:00;100928.44;;;4.79;100.00
77452;BME280;66537;52.370;4.832;2024-01-06T04:54:26;100932.72;;;4.75;100.00
77452;BME280;66537;52.370;4.832;2024-01-06T04:56:51;100932.75;;;4.69;100.00
77452;BME280;66537;52.370;4.832;2024-01-06T04:59:16;100937.00;;;4.79;100.00
77452;BME280;66537;52.370;4.832;2024-01-06T05:01:41;100939.53;;;4.85;100.00
77452;BME280;66537;52.370;4.832;2024-01-06T05:04:07;100932.72;;;4.81;100.00
77452;BME280;66537;52.370;4.832;2024-01-06T05:06:32;100934.41;;;4.87;100.00
77452;BME280;66537;52.370;4.832;2024-01-06T05:08:57;100937.84;;;4.81;100.00
77452;BME280;66537;52.370;4.832;2024-01-06T05:11:23;100941.97;;;5.09;100.00
77452;BME280;66537;52.370;4.832;2024-01-06T05:13:48;100941.22;;;4.86;100.00
77452;BME280;66537;52.370;4.832;2024-01-06T05:16:13;100954.09;;;4.77;100.00
77452;BME280;66537;52.370;4.832;2024-01-06T05:18:39;100954.09;;;4.73;100.00
77452;BME280;66537;52.370;4.832;2024-01-06T05:21:04;100955.78;;;4.81;100.00
77452;BME280;66537;52.370;4.832;2024-01-06T05:23:30;100952.38;;;4.69;100.00
77452;BME280;66537;52.370;4.832;2024-01-06T05:25:55;100959.25;;;4.64;100.00
77452;BME280;66537;52.370;4.832;2024-01-06T05:28:20;100951.56;;;4.64;100.00
77452;BME280;66537;52.370;4.832;2024-01-06T05:30:46;100961.84;;;4.61;100.00
77452;BME280;66537;52.370;4.832;2024-01-06T05:33:12;100970.34;;;4.70;100.00
77452;BME280;66537;52.370;4.832;2024-01-06T05:35:38;100977.16;;;4.77;100.00
77452;BME280;66537;52.370;4.832;2024-01-06T05:38:04;100981.47;;;4.49;100.00
77452;BME280;66537;52.370;4.832;2024-01-06T05:40:29;100975.53;;;4.40;100.00
77452;BME280;66537;52.370;4.832;2024-01-06T05:42:54;100976.38;;;4.40;100.00
77452;BME280;66537;52.370;4.832;2024-01-06T05:45:22;100981.50;;;4.52;100.00
77452;BME280;66537;52.370;4.832;2024-01-06T05:47:47;100988.31;;;4.53;100.00
77452;BME280;66537;52.370;4.832;2024-01-06T05:50:15;100990.03;;;4.41;100.00
77452;BME280;66537;52.370;4.832;2024-01-06T05:52:40;100994.28;;;4.48;100.00
77452;BME280;66537;52.370;4.832;2024-01-06T05:55:06;100998.56;;;4.50;100.00
77452;BME280;66537;52.370;4.832;2024-01-06T05:57:31;101000.28;;;4.54;100.00
77452;BME280;66537;52.370;4.832;2024-01-06T05:59:57;101005.38;;;4.64;100.00
77452;BME280;66537;52.370;4.832;2024-01-06T06:02:22;101001.97;;;4.66;100.00
77452;BME280;66537;52.370;4.832;2024-01-06T06:04:47;101007.91;;;4.71;100.00
77452;BME280;66537;52.370;4.832;2024-01-06T06:07:13;101019.06;;;4.52;100.00
77452;BME280;66537;52.370;4.832;2024-01-06T06:09:38;101023.34;;;4.48;100.00
77452;BME280;66537;52.370;4.832;2024-01-06T06:12:06;101024.16;;;4.59;100.00
77452;BME280;66537;52.370;4.832;2024-01-06T06:14:31;101033.56;;;4.64;100.00
77452;BME280;66537;52.370;4.832;2024-01-06T06:16:56;101041.25;;;4.44;100.00
77452;BME280;66537;52.370;4.832;2024-01-06T06:19:22;101047.25;;;4.43;100.00
77452;BME280;66537;52.370;4.832;2024-01-06T06:21:47;101060.03;;;4.64;100.00
77452;BME280;66537;52.370;4.832;2024-01-06T06:24:12;101060.03;;;4.73;100.00
77452;BME280;66537;52.370;4.832;2024-01-06T06:26:38;101055.75;;;4.80;100.00
77452;BME280;66537;52.370;4.832;2024-01-06T06:29:04;101058.28;;;4.83;100.00
77452;BME280;66537;52.370;4.832;2024-01-06T06:31:29;101056.63;;;4.62;100.00
77452;BME280;66537;52.370;4.832;2024-01-06T06:33:54;101062.63;;;4.56;100.00
77452;BME280;66537;52.370;4.832;2024-01-06T06:36:20;101066.00;;;4.36;100.00
77452;BME280;66537;52.370;4.832;2024-01-06T06:38:45;101074.56;;;4.32;100.00
77452;BME280;66537;52.370;4.832;2024-01-06T06:41:11;101068.59;;;4.40;100.00
77452;BME280;66537;52.370;4.832;2024-01-06T06:43:36;101072.00;;;4.64;100.00
77452;BME280;66537;52.370;4.832;2024-01-06T06:46:01;101083.97;;;4.72;100.00
77452;BME280;66537;52.370;4.832;2024-01-06T06:48:27;101083.94;;;4.68;100.00
77452;BME280;66537;52.370;4.832;2024-01-06T06:50:53;101083.94;;;4.68;100.00
77452;BME280;66537;52.370;4.832;2024-01-06T06:53:18;101087.38;;;4.74;100.00
77452;BME280;66537;52.370;4.832;2024-01-06T06:55:43;101101.88;;;4.63;100.00
77452;BME280;66537;52.370;4.832;2024-01-06T06:58:09;101097.63;;;4.70;100.00
77452;BME280;66537;52.370;4.832;2024-01-06T07:00:34;101101.03;;;4.61;100.00
77452;BME280;66537;52.370;4.832;2024-01-06T07:03:00;101108.72;;;4.46;100.00
77452;BME280;66537;52.370;4.832;2024-01-06T07:05:26;101113.84;;;4.50;100.00
77452;BME280;66537;52.370;4.832;2024-01-06T07:07:51;101114.69;;;4.49;100.00
77452;BME280;66537;52.370;4.832;2024-01-06T07:10:16;101119.78;;;4.21;100.00
77452;BME280;66537;52.370;4.832;2024-01-06T07:12:42;101129.22;;;4.37;100.00
77452;BME280;66537;52.370;4.832;2024-01-06T07:15:08;101125.81;;;4.41;100.00
77452;BME280;66537;52.370;4.832;2024-01-06T07:17:37;101128.34;;;4.27;100.00
77452;BME280;66537;52.370;4.832;2024-01-06T07:20:04;101128.28;;;4.12;100.00
77452;BME280;66537;52.370;4.832;2024-01-06T07:22:32;101130.00;;;4.16;100.00
77452;BME280;66537;52.370;4.832;2024-01-06T07:24:57;101133.47;;;4.30;100.00
77452;BME280;66537;52.370;4.832;2024-01-06T07:27:22;101136.84;;;4.11;100.00
77452;BME280;66537;52.370;4.832;2024-01-06T07:29:48;101140.28;;;4.10;100.00
77452;BME280;66537;52.370;4.832;2024-01-06T07:32:13;101151.38;;;4.21;100.00
77452;BME280;66537;52.370;4.832;2024-01-06T07:34:39;101152.22;;;4.17;100.00
77452;BME280;66537;52.370;4.832;2024-01-06T07:37:04;101159.81;;;3.92;100.00
77452;BME280;66537;52.370;4.832;2024-01-06T07:39:31;101159.88;;;4.04;100.00
77452;BME280;66537;52.370;4.832;2024-01-06T07:41:56;101159.00;;;4.12;100.00
77452;BME280;66537;52.370;4.832;2024-01-06T07:44:21;101165.84;;;4.16;100.00
77452;BME280;66537;52.370;4.832;2024-01-06T07:46:50;101169.28;;;4.18;100.00
77452;BME280;66537;52.370;4.832;2024-01-06T07:49:16;101175.22;;;4.07;100.00
77452;BME280;66537;52.370;4.832;2024-01-06T07:51:41;101173.50;;;4.03;100.00
77452;BME280;66537;52.370;4.832;2024-01-06T07:54:06;101179.50;;;4.09;100.00
77452;BME280;66537;52.370;4.832;2024-01-06T07:56:37;101184.69;;;4.30;100.00
77452;BME280;66537;52.370;4.832;2024-01-06T07:59:03;101186.38;;;4.22;100.00
77452;BME280;66537;52.370;4.832;2024-01-06T08:01:29;101195.75;;;4.19;100.00
77452;BME280;66537;52.370;4.832;2024-01-06T08:03:54;101204.31;;;4.34;100.00
77452;BME280;66537;52.370;4.832;2024-01-06T08:06:20;101211.16;;;4.29;100.00
77452;BME280;66537;52.370;4.832;2024-01-06T08:08:45;101206.94;;;4.63;100.00
77452;BME280;66537;52.370;4.832;2024-01-06T08:11:13;101216.31;;;4.44;100.00
77452;BME280;66537;52.370;4.832;2024-01-06T08:13:39;101216.34;;;4.73;100.00
77452;BME280;66537;52.370;4.832;2024-01-06T08:16:06;101224.84;;;4.45;100.00
77452;BME280;66537;52.370;4.832;2024-01-06T08:18:32;101222.31;;;4.60;100.00
77452;BME280;66537;52.370;4.832;2024-01-06T08:20:57;101230.03;;;4.89;100.00
77452;BME280;66537;52.370;4.832;2024-01-06T08:23:23;101232.53;;;4.51;100.00
77452;BME280;66537;52.370;4.832;2024-01-06T08:25:48;101229.13;;;4.49;100.00
77452;BME280;66537;52.370;4.832;2024-01-06T08:28:14;101229.94;;;4.24;100.00
77452;BME280;66537;52.370;4.832;2024-01-06T08:30:44;101233.41;;;4.67;100.00
77452;BME280;66537;52.370;4.832;2024-01-06T08:33:09;101237.69;;;4.65;100.00
77452;BME280;66537;52.370;4.832;2024-01-06T08:35:35;101241.13;;;4.85;100.00
77452;BME280;66537;52.370;4.832;2024-01-06T08:38:05;101246.28;;;4.82;100.00
77452;BME280;66537;52.370;4.832;2024-01-06T08:40:31;101246.22;;;4.48;100.00
77452;BME280;66537;52.370;4.832;2024-01-06T08:42:56;101258.16;;;4.46;100.00
77452;BME280;66537;52.370;4.832;2024-01-06T08:45:21;101253.00;;;4.40;100.00
77452;BME280;66537;52.370;4.832;2024-01-06T08:47:47;101258.13;;;4.43;100.00
77452;BME280;66537;52.370;4.832;2024-01-06T08:50:13;101264.03;;;4.26;100.00
77452;BME280;66537;52.370;4.832;2024-01-06T08:52:38;101264.94;;;4.34;100.00
77452;BME280;66537;52.370;4.832;2024-01-06T08:55:04;101267.47;;;4.26;100.00
77452;BME280;66537;52.370;4.832;2024-01-06T08:57:30;101270.09;;;4.40;100.00
77452;BME280;66537;52.370;4.832;2024-01-06T08:59:55;101276.94;;;4.44;100.00
77452;BME280;66537;52.370;4.832;2024-01-06T09:02:20;101281.16;;;4.34;100.00
77452;BME280;66537;52.370;4.832;2024-01-06T09:04:46;101292.25;;;4.32;100.00
77452;BME280;66537;52.370;4.832;2024-01-06T09:07:12;101289.69;;;4.30;100.00
77452;BME280;66537;52.370;4.832;2024-01-06T09:09:37;101299.03;;;4.18;100.00
77452;BME280;66537;52.370;4.832;2024-01-06T09:12:02;101295.66;;;4.29;100.00
77452;BME280;66537;52.370;4.832;2024-01-06T09:14:28;101293.94;;;4.27;100.00
77452;BME280;66537;52.370;4.832;2024-01-06T09:16:53;101292.28;;;4.38;100.00
77452;BME280;66537;52.370;4.832;2024-01-06T09:19:19;101299.09;;;4.34;100.00
77452;BME280;66537;52.370;4.832;2024-01-06T09:21:44;101299.03;;;4.19;100.00
77452;BME280;66537;52.370;4.832;2024-01-06T09:24:10;101311.84;;;4.21;100.00
77452;BME280;66537;52.370;4.832;2024-01-06T09:26:35;101318.69;;;4.26;100.00
77452;BME280;66537;52.370;4.832;2024-01-06T09:29:03;101322.94;;;4.24;100.00
77452;BME280;66537;52.370;4.832;2024-01-06T09:31:29;101321.38;;;4.56;100.00
77452;BME280;66537;52.370;4.832;2024-01-06T09:33:54;101321.38;;;4.53;100.00
77452;BME280;66537;52.370;4.832;2024-01-06T09:36:20;101329.88;;;4.49;100.00
77452;BME280;66537;52.370;4.832;2024-01-06T09:38:45;101332.34;;;4.28;100.00
77452;BME280;66537;52.370;4.832;2024-01-06T09:41:11;101339.25;;;4.38;100.00
77452;BME280;66537;52.370;4.832;2024-01-06T09:43:36;101342.63;;;4.36;100.00
77452;BME280;66537;52.370;4.832;2024-01-06T09:46:24;101346.03;;;4.27;100.00
77452;BME280;66537;52.370;4.832;2024-01-06T09:48:51;101346.06;;;4.35;100.00
77452;BME280;66537;52.370;4.832;2024-01-06T09:51:19;101348.63;;;4.36;100.00
77452;BME280;66537;52.370;4.832;2024-01-06T09:53:49;101352.91;;;4.42;100.00
77452;BME280;66537;52.370;4.832;2024-01-06T09:56:16;101355.50;;;4.48;100.00
77452;BME280;66537;52.370;4.832;2024-01-06T09:58:43;101360.72;;;4.68;100.00
77452;BME280;66537;52.370;4.832;2024-01-06T10:01:09;101364.13;;;4.62;100.00
77452;BME280;66537;52.370;4.832;2024-01-06T10:03:37;101364.22;;;4.89;100.00
77452;BME280;66537;52.370;4.832;2024-01-06T10:06:02;101367.56;;;4.70;100.00
77452;BME280;66537;52.370;4.832;2024-01-06T10:08:30;101377.72;;;4.55;100.00
77452;BME280;66537;52.370;4.832;2024-01-06T10:10:55;101378.69;;;4.78;100.00
77452;BME280;66537;52.370;4.832;2024-01-06T10:13:20;101384.59;;;4.56;100.00
77452;BME280;66537;52.370;4.832;2024-01-06T10:15:46;101382.00;;;4.48;100.00
77452;BME280;66537;52.370;4.832;2024-01-06T10:18:12;101381.13;;;4.48;100.00
77452;BME280;66537;52.370;4.832;2024-01-06T10:20:38;101380.22;;;4.41;100.00
77452;BME280;66537;52.370;4.832;2024-01-06T10:23:06;101383.72;;;4.52;100.00
77452;BME280;66537;52.370;4.832;2024-01-06T10:25:31;101389.69;;;4.47;100.00
77452;BME280;66537;52.370;4.832;2024-01-06T10:27:57;101391.47;;;4.68;100.00
77452;BME280;66537;52.370;4.832;2024-01-06T10:30:25;101388.00;;;4.56;100.00
77452;BME280;66537;52.370;4.832;2024-01-06T10:32:51;101393.94;;;4.48;100.00
77452;BME280;66537;52.370;4.832;2024-01-06T10:35:17;101396.56;;;4.60;100.00
77452;BME280;66537;52.370;4.832;2024-01-06T10:37:43;101395.81;;;4.85;100.00
77452;BME280;66537;52.370;4.832;2024-01-06T10:40:10;101401.78;;;4.80;100.00
77452;BME280;66537;52.370;4.832;2024-01-06T10:42:37;101404.31;;;4.72;100.00
77452;BME280;66537;52.370;4.832;2024-01-06T10:45:06;101409.44;;;4.78;100.00
77452;BME280;66537;52.370;4.832;2024-01-06T10:47:34;101403.44;;;4.75;100.00
77452;BME280;66537;52.370;4.832;2024-01-06T10:50:00;101410.28;;;4.68;100.00
77452;BME280;66537;52.370;4.832;2024-01-06T10:52:26;101403.31;;;4.44;100.00
77452;BME280;66537;52.370;4.832;2024-01-06T10:54:54;101411.06;;;4.59;100.00
77452;BME280;66537;52.370;4.832;2024-01-06T10:57:19;101413.75;;;4.84;100.00
77452;BME280;66537;52.370;4.832;2024-01-06T10:59:48;101406.00;;;4.75;100.00
77452;BME280;66537;52.370;4.832;2024-01-06T11:02:15;101412.78;;;4.56;100.00
77452;BME280;66537;52.370;4.832;2024-01-06T11:04:43;101411.97;;;4.69;100.00
77452;BME280;66537;52.370;4.832;2024-01-06T11:07:10;101421.34;;;4.69;100.00
77452;BME280;66537;52.370;4.832;2024-01-06T11:09:37;101421.38;;;4.73;100.00
77452;BME280;66537;52.370;4.832;2024-01-06T11:12:05;101426.41;;;4.55;100.00
77452;BME280;66537;52.370;4.832;2024-01-06T11:14:37;101427.31;;;4.62;100.00
77452;BME280;66537;52.370;4.832;2024-01-06T11:17:03;101429.94;;;4.78;100.00
77452;BME280;66537;52.370;4.832;2024-01-06T11:24:48;101428.34;;;5.07;100.00
77452;BME280;66537;52.370;4.832;2024-01-06T11:27:22;101426.63;;;4.97;100.00
77452;BME280;66537;52.370;4.832;2024-01-06T11:29:51;101432.63;;;4.99;100.00
77452;BME280;66537;52.370;4.832;2024-01-06T11:34:47;101432.59;;;5.02;100.00
77452;BME280;66537;52.370;4.832;2024-01-06T11:37:14;101430.13;;;5.29;100.00
77452;BME280;66537;52.370;4.832;2024-01-06T11:39:41;101426.66;;;5.14;100.00
77452;BME280;66537;52.370;4.832;2024-01-06T11:42:10;101435.25;;;5.38;100.00
77452;BME280;66537;52.370;4.832;2024-01-06T11:44:37;101435.25;;;5.32;100.00
77452;BME280;66537;52.370;4.832;2024-01-06T11:47:04;101430.13;;;5.44;100.00
77452;BME280;66537;52.370;4.832;2024-01-06T11:49:29;101436.94;;;5.21;100.00
77452;BME280;66537;52.370;4.832;2024-01-06T11:51:56;101445.47;;;5.16;100.00
77452;BME280;66537;52.370;4.832;2024-01-06T11:54:22;101439.47;;;5.05;100.00
77452;BME280;66537;52.370;4.832;2024-01-06T11:56:48;101439.38;;;4.88;100.00
77452;BME280;66537;52.370;4.832;2024-01-06T11:59:13;101447.03;;;4.79;100.00
77452;BME280;66537;52.370;4.832;2024-01-06T12:01:38;101440.25;;;4.92;100.00
77452;BME280;66537;52.370;4.832;2024-01-06T12:04:05;101435.97;;;4.92;100.00
77452;BME280;66537;52.370;4.832;2024-01-06T12:06:31;101435.16;;;5.02;100.00
77452;BME280;66537;52.370;4.832;2024-01-06T12:11:30;101447.13;;;5.03;100.00
77452;BME280;66537;52.370;4.832;2024-01-06T12:13:56;101446.31;;;5.09;100.00
77452;BME280;66537;52.370;4.832;2024-01-06T12:16:22;101450.53;;;4.95;100.00
77452;BME280;66537;52.370;4.832;2024-01-06T12:18:52;101451.41;;;4.98;100.00
77452;BME280;66537;52.370;4.832;2024-01-06T12:21:17;101452.25;;;4.99;100.00
77452;BME280;66537;52.370;4.832;2024-01-06T12:23:43;101453.06;;;4.89;100.00
77452;BME280;66537;52.370;4.832;2024-01-06T12:26:09;101453.97;;;4.95;100.00
77452;BME280;66537;52.370;4.832;2024-01-06T12:28:37;101454.81;;;4.97;100.00
77452;BME280;66537;52.370;4.832;2024-01-06T12:31:04;101454.75;;;4.78;100.00
77452;BME280;66537;52.370;4.832;2024-01-06T12:33:30;101458.88;;;4.56;100.00
77452;BME280;66537;52.370;4.832;2024-01-06T12:35:56;101457.13;;;4.47;100.00
77452;BME280;66537;52.370;4.832;2024-01-06T12:38:22;101463.94;;;4.41;100.00
77452;BME280;66537;52.370;4.832;2024-01-06T12:40:49;101456.16;;;4.30;100.00
77452;BME280;66537;52.370;4.832;2024-01-06T12:43:14;101454.41;;;4.22;100.00
77452;BME280;66537;52.370;4.832;2024-01-06T12:45:39;101456.13;;;4.26;100.00
77452;BME280;66537;52.370;4.832;2024-01-06T12:48:05;101466.50;;;4.42;100.00
77452;BME280;66537;52.370;4.832;2024-01-06T12:50:30;101468.13;;;4.33;100.00
77452;BME280;66537;52.370;4.832;2024-01-06T12:52:56;101469.88;;;4.35;100.00